Terminal Aerodrome Forecast
Issued by NWS

Home | Current Version | Previous Version | Text Only | Print | Product List | Glossary Off
Versions: 1 2 3 4 5 6 7 8 9 10 11 12 13 14 15 16

000
FTUS45 KGGW 250500
TAFSDY
TAF
KSDY 250520Z 2506/2606 11010KT P6SM BKN090
     FM251200 12011KT P6SM VCSH BKN015 OVC060
     FM251800 17008KT 6SM -SHRA BKN040 OVC070
     FM260000 30007KT 6SM -SHRA BKN035
      AMD LTD TO CLD VIS AND WIND=

USA.gov is the U.S. government's official web portal to all federal, state and local government web resources and services.